Time;durP1;ratioP1;P1;durP2;ratioP2;P2;SDS_P1;SDS_P2;PMS_P1;PMS_P2;Temp;Humidity;BMP_temperature;BMP_pressure;BME280_temperature;BME280_humidity;BME280_pressure;Samples;Min_cycle;Max_cycle;Signal;HPM_P1;HPM_P2
2021/09/11 00:01:55;;;;;;;6.83;4.93;;;;;;;19.83;89.04;100285.03;5003775;28;20719;-79
2021/09/11 00:04:21;;;;;;;5.30;4.80;;;;;;;19.81;89.06;100279.81;5002862;28;20689;-77
2021/09/11 00:06:48;;;;;;;5.87;5.20;;;;;;;19.76;89.34;100273.97;5003640;28;20635;-76
2021/09/11 00:09:14;;;;;;;5.63;4.70;;;;;;;19.76;89.63;100270.44;5003070;28;21181;-77
2021/09/11 00:11:41;;;;;;;5.63;5.13;;;;;;;19.75;89.43;100274.03;5003362;28;20659;-78
2021/09/11 00:14:07;;;;;;;5.73;5.33;;;;;;;19.75;89.24;100277.53;5003273;28;20696;-76
2021/09/11 00:16:33;;;;;;;6.10;5.60;;;;;;;19.72;89.73;100283.03;5004032;28;20209;-79
2021/09/11 00:19:01;;;;;;;5.40;4.90;;;;;;;19.70;89.56;100274.31;5002415;28;20206;-77
2021/09/11 00:21:28;;;;;;;5.20;4.80;;;;;;;19.73;89.98;100271.47;5003413;28;20242;-78
2021/09/11 00:23:54;;;;;;;5.87;5.47;;;;;;;19.71;89.93;100272.50;5003237;28;20656;-78
2021/09/11 00:26:20;;;;;;;6.00;5.17;;;;;;;19.66;90.01;100264.81;5003880;28;20207;-79
2021/09/11 00:28:47;;;;;;;6.20;5.63;;;;;;;19.64;90.33;100241.09;5003218;28;20217;-76
2021/09/11 00:31:13;;;;;;;5.83;5.40;;;;;;;19.62;90.80;100239.44;5003108;28;20233;-76
2021/09/11 00:33:40;;;;;;;6.07;5.67;;;;;;;19.58;90.94;100233.50;5003438;28;20216;-78
2021/09/11 00:36:08;;;;;;;7.00;6.30;;;;;;;19.62;90.56;100234.16;5003155;28;20252;-76
2021/09/11 00:38:34;;;;;;;5.63;5.27;;;;;;;19.61;90.42;100232.47;5003806;28;20210;-76
2021/09/11 00:41:00;;;;;;;8.90;7.43;;;;;;;19.59;90.40;100242.31;5003247;28;20293;-78
2021/09/11 00:43:28;;;;;;;7.70;7.10;;;;;;;19.59;90.74;100245.78;5002517;28;20276;-78
2021/09/11 00:45:55;;;;;;;7.63;7.13;;;;;;;19.58;90.38;100243.22;5002850;28;20220;-78
2021/09/11 00:48:22;;;;;;;8.63;8.07;;;;;;;19.50;90.89;100235.75;5003047;28;20693;-76
2021/09/11 00:50:49;;;;;;;7.57;6.97;;;;;;;19.53;90.77;100230.28;5002882;28;20224;-78
2021/09/11 00:53:17;;;;;;;7.87;7.23;;;;;;;19.54;90.85;100224.03;5002796;28;20210;-76
2021/09/11 00:55:44;;;;;;;7.67;6.93;;;;;;;19.55;90.63;100225.75;5002217;28;21003;-77
2021/09/11 00:58:10;;;;;;;8.23;7.43;;;;;;;19.54;90.97;100226.66;5003322;28;20248;-79
2021/09/11 01:00:37;;;;;;;7.73;7.00;;;;;;;19.54;90.95;100231.97;5002230;28;20275;-77
2021/09/11 01:03:05;;;;;;;8.03;7.53;;;;;;;19.52;90.98;100233.00;5002241;28;20256;-75
2021/09/11 01:05:31;;;;;;;8.37;7.70;;;;;;;19.52;90.89;100233.00;5002668;28;20298;-77
2021/09/11 01:07:58;;;;;;;8.37;7.87;;;;;;;19.53;90.96;100235.56;5003088;28;20210;-77
2021/09/11 01:10:26;;;;;;;14.00;8.93;;;;;;;19.55;90.72;100244.28;5002303;28;20212;-78
2021/09/11 01:12:53;;;;;;;11.33;8.03;;;;;;;19.56;91.31;100230.09;5002623;28;20283;-75
2021/09/11 01:15:32;;;;;;;7.60;7.00;;;;;;;19.54;91.07;100228.47;5001665;28;20209;-77
2021/09/11 01:17:58;;;;;;;10.17;6.80;;;;;;;19.50;91.35;100226.97;5001925;28;20216;-77
2021/09/11 01:20:25;;;;;;;7.23;6.67;;;;;;;19.50;91.14;100229.59;5002623;28;20271;-77
2021/09/11 01:22:51;;;;;;;7.30;6.23;;;;;;;19.51;91.12;100241.91;5002134;28;20293;-75
2021/09/11 01:25:19;;;;;;;6.90;5.43;;;;;;;19.44;91.68;100222.88;5002287;28;20296;-78
2021/09/11 01:27:45;;;;;;;8.50;6.23;;;;;;;19.45;91.48;100224.59;5002996;28;20268;-78
2021/09/11 01:30:14;;;;;;;6.73;6.20;;;;;;;19.41;91.71;100223.91;5002158;28;20260;-77
2021/09/11 01:32:41;;;;;;;25.53;6.03;;;;;;;19.43;91.53;100219.38;5002141;28;20503;-78
2021/09/11 01:35:09;;;;;;;9.60;6.43;;;;;;;19.44;91.48;100228.16;5002620;28;20683;-77
2021/09/11 01:37:35;;;;;;;8.70;7.90;;;;;;;19.44;91.72;100225.53;5002221;28;20268;-78
2021/09/11 01:40:02;;;;;;;7.80;7.30;;;;;;;19.44;91.62;100228.16;5002465;28;20334;-76
2021/09/11 01:42:29;;;;;;;8.27;7.07;;;;;;;19.43;91.43;100231.78;5002514;28;20291;-76
2021/09/11 01:44:58;;;;;;;8.87;8.07;;;;;;;19.41;91.66;100229.22;5002080;28;20708;-77
2021/09/11 01:47:25;;;;;;;8.80;8.13;;;;;;;19.39;91.53;100231.09;5002281;28;20206;-78
2021/09/11 01:49:52;;;;;;;10.60;9.70;;;;;;;19.37;91.43;100230.34;5002051;28;20588;-78
2021/09/11 01:52:20;;;;;;;10.43;9.73;;;;;;;19.35;91.97;100226.09;5002332;28;20277;-76
2021/09/11 01:54:47;;;;;;;11.07;10.27;;;;;;;19.36;91.89;100230.41;5002049;28;20213;-76
2021/09/11 01:57:14;;;;;;;11.43;10.70;;;;;;;19.33;91.90;100226.16;5002700;28;20259;-77
2021/09/11 01:59:42;;;;;;;11.73;10.93;;;;;;;19.33;92.11;100220.88;5001986;28;20260;-78
2021/09/11 02:02:09;;;;;;;12.30;11.43;;;;;;;19.33;92.05;100226.16;5001736;28;20230;-76
2021/09/11 02:04:36;;;;;;;12.27;11.37;;;;;;;19.29;92.32;100227.28;5001941;28;20232;-75
2021/09/11 02:07:04;;;;;;;11.00;10.20;;;;;;;19.30;91.68;100230.78;5002006;28;20205;-78
2021/09/11 02:09:32;;;;;;;12.00;11.10;;;;;;;19.31;92.02;100233.34;5002386;28;20217;-78
2021/09/11 02:11:59;;;;;;;10.97;10.07;;;;;;;19.30;91.98;100242.22;5001269;28;20232;-79
2021/09/11 02:14:27;;;;;;;11.97;11.17;;;;;;;19.30;91.58;100242.22;5002175;28;20205;-75
2021/09/11 02:16:55;;;;;;;10.73;10.03;;;;;;;19.30;91.93;100250.16;5002046;28;20531;-76
2021/09/11 02:19:21;;;;;;;10.67;9.63;;;;;;;19.30;91.89;100244.84;5001958;28;20561;-78
2021/09/11 02:21:47;;;;;;;10.93;10.00;;;;;;;19.29;91.89;100240.53;5002077;28;20238;-76
2021/09/11 02:24:14;;;;;;;11.87;11.03;;;;;;;19.25;91.97;100247.78;5000784;28;20564;-76
2021/09/11 02:26:40;;;;;;;10.70;10.00;;;;;;;19.24;92.04;100242.56;5001748;28;21040;-77
2021/09/11 02:29:07;;;;;;;11.17;10.47;;;;;;;19.23;91.95;100240.88;5002001;28;20210;-77
2021/09/11 02:31:33;;;;;;;12.07;11.10;;;;;;;19.24;91.86;100253.16;5002159;28;20235;-76
2021/09/11 02:34:01;;;;;;;12.00;11.10;;;;;;;19.21;91.76;100256.00;5004523;28;20233;-76
2021/09/11 02:36:27;;;;;;;11.63;10.93;;;;;;;19.23;91.87;100254.97;5005577;28;20630;-77
2021/09/11 02:38:56;;;;;;;10.70;9.87;;;;;;;19.22;92.04;100245.31;5005206;28;20211;-77
2021/09/11 02:41:22;;;;;;;12.87;12.07;;;;;;;18.97;92.43;100243.25;5005037;28;20234;-77
2021/09/11 02:43:48;;;;;;;13.03;12.13;;;;;;;19.02;92.29;100235.88;5005638;28;20265;-78
2021/09/11 02:46:17;;;;;;;11.73;10.83;;;;;;;19.08;92.33;100231.19;5004778;28;20708;-76
2021/09/11 02:48:43;;;;;;;12.60;11.60;;;;;;;19.10;92.45;100232.78;5004829;28;20284;-75
2021/09/11 02:51:11;;;;;;;13.40;12.30;;;;;;;19.12;92.22;100238.00;5005422;28;20225;-77
2021/09/11 02:53:39;;;;;;;11.87;10.97;;;;;;;19.15;92.13;100238.69;5005025;28;20720;-78
2021/09/11 02:56:05;;;;;;;11.53;10.73;;;;;;;19.13;92.01;100243.22;5005452;28;20287;-77
2021/09/11 02:58:31;;;;;;;12.60;11.70;;;;;;;19.16;92.04;100242.16;5004953;28;20217;-75
2021/09/11 03:00:58;;;;;;;11.73;10.90;;;;;;;19.15;91.55;100257.19;5004832;28;20275;-76
2021/09/11 03:03:24;;;;;;;12.17;11.27;;;;;;;19.17;91.57;100260.59;5005226;28;20237;-77
2021/09/11 03:05:50;;;;;;;11.20;10.20;;;;;;;19.12;91.76;100264.47;5004698;28;20728;-75
2021/09/11 03:08:18;;;;;;;13.33;12.33;;;;;;;19.09;91.63;100265.50;5005257;28;20688;-78
2021/09/11 03:10:44;;;;;;;13.83;12.83;;;;;;;19.09;91.55;100257.56;5004725;28;20628;-77
2021/09/11 03:13:11;;;;;;;14.77;13.67;;;;;;;19.15;91.69;100259.00;5004470;28;20703;-76
2021/09/11 03:15:37;;;;;;;13.13;12.13;;;;;;;19.14;91.62;100265.22;5004658;28;20745;-77
2021/09/11 03:18:03;;;;;;;14.33;13.23;;;;;;;19.15;91.30;100266.94;5004045;28;20209;-77
2021/09/11 03:20:33;;;;;;;15.33;14.23;;;;;;;19.14;91.34;100265.22;5004657;28;20222;-75
2021/09/11 03:23:00;;;;;;;14.47;13.27;;;;;;;19.12;91.09;100262.66;5004691;28;20551;-77
2021/09/11 03:25:27;;;;;;;14.20;12.77;;;;;;;19.10;91.10;100264.53;5004920;28;20279;-78
2021/09/11 03:27:54;;;;;;;14.63;13.53;;;;;;;19.08;91.23;100261.13;5004783;28;20249;-78
2021/09/11 03:30:20;;;;;;;13.13;12.23;;;;;;;19.08;91.06;100258.47;5003879;28;20617;-76
2021/09/11 03:32:47;;;;;;;12.57;11.47;;;;;;;19.04;91.36;100255.16;5004183;28;20802;-78
2021/09/11 03:35:13;;;;;;;13.10;11.90;;;;;;;18.99;91.65;100249.28;5003931;28;20261;-77
2021/09/11 03:37:41;;;;;;;13.13;12.20;;;;;;;18.98;91.78;100237.00;5003851;28;20264;-76
2021/09/11 03:40:09;;;;;;;14.07;13.03;;;;;;;18.97;91.62;100242.41;5003824;28;20700;-76
2021/09/11 03:42:37;;;;;;;12.60;11.70;;;;;;;18.98;91.43;100255.50;5004273;28;20237;-79
2021/09/11 03:45:04;;;;;;;12.50;11.60;;;;;;;19.02;91.10;100256.19;5003022;28;20227;-77
2021/09/11 03:47:31;;;;;;;13.50;12.50;;;;;;;18.98;91.78;100246.72;5003697;28;20269;-76
2021/09/11 03:49:57;;;;;;;13.43;12.43;;;;;;;18.97;91.80;100243.25;5003547;28;20210;-76
2021/09/11 03:52:23;;;;;;;12.53;11.63;;;;;;;18.96;91.31;100246.81;5004516;28;20285;-76
2021/09/11 03:54:52;;;;;;;12.63;11.07;;;;;;;18.98;91.42;100259.94;5003630;28;20212;-76
2021/09/11 03:57:18;;;;;;;11.63;10.83;;;;;;;18.96;91.17;100269.78;5003941;28;20260;-75
2021/09/11 03:59:46;;;;;;;12.63;11.63;;;;;;;18.97;91.16;100266.19;5003777;28;20278;-78
2021/09/11 04:02:12;;;;;;;11.60;10.70;;;;;;;18.98;91.19;100274.03;5003563;28;20230;-78
2021/09/11 04:04:38;;;;;;;11.17;10.17;;;;;;;18.97;91.04;100277.63;5003387;28;20217;-77
2021/09/11 04:07:05;;;;;;;10.33;9.33;;;;;;;18.97;91.12;100282.06;5003370;28;20221;-77
2021/09/11 04:09:31;;;;;;;12.70;11.40;;;;;;;18.96;90.83;100285.66;5003826;28;20209;-77
2021/09/11 04:11:58;;;;;;;12.67;11.67;;;;;;;18.94;91.21;100279.59;5003448;28;20224;-77
2021/09/11 04:14:24;;;;;;;11.20;10.13;;;;;;;18.89;91.03;100277.22;5003461;28;20505;-78
2021/09/11 04:16:52;;;;;;;12.37;11.37;;;;;;;18.94;91.09;100271.66;5003128;28;20209;-78
2021/09/11 04:19:18;;;;;;;11.60;10.67;;;;;;;18.95;91.07;100273.34;5003552;28;20204;-77
2021/09/11 04:21:45;;;;;;;12.07;11.17;;;;;;;18.95;90.99;100273.34;5003677;28;20534;-77
2021/09/11 04:24:12;;;;;;;11.40;10.50;;;;;;;18.82;91.13;100273.19;5003646;28;20210;-77
2021/09/11 04:26:38;;;;;;;10.63;9.83;;;;;;;18.74;92.04;100252.44;5003086;28;20286;-77
2021/09/11 04:29:05;;;;;;;10.20;9.40;;;;;;;18.77;91.79;100259.31;5003585;28;20214;-77
2021/09/11 04:31:31;;;;;;;9.20;8.60;;;;;;;18.72;91.79;100259.59;5002923;28;20282;-76
2021/09/11 04:33:59;;;;;;;10.50;9.70;;;;;;;18.74;91.74;100257.72;5003432;28;20213;-79
2021/09/11 04:36:26;;;;;;;10.07;9.27;;;;;;;18.75;91.86;100258.56;5002678;28;20771;-76
2021/09/11 04:38:52;;;;;;;11.10;10.20;;;;;;;18.77;91.76;100264.63;5003666;28;20268;-78
2021/09/11 04:41:19;;;;;;;10.13;8.83;;;;;;;18.75;91.50;100264.72;5003350;28;20294;-78
2021/09/11 04:43:47;;;;;;;8.87;8.23;;;;;;;18.76;91.66;100268.22;5002788;28;20221;-75
2021/09/11 04:46:15;;;;;;;8.90;8.20;;;;;;;18.76;91.52;100268.22;5002103;28;21127;-75
2021/09/11 04:48:41;;;;;;;9.23;8.50;;;;;;;18.77;91.38;100277.84;5003158;28;20243;-77
2021/09/11 04:51:09;;;;;;;7.97;7.37;;;;;;;18.77;91.62;100275.19;5003044;28;20233;-78
2021/09/11 04:53:38;;;;;;;9.30;8.47;;;;;;;18.77;91.65;100268.13;5002582;28;20213;-76
2021/09/11 04:56:06;;;;;;;8.30;7.70;;;;;;;18.76;91.84;100268.22;5002188;28;20233;-79
2021/09/11 04:58:32;;;;;;;9.07;8.17;;;;;;;18.72;91.98;100261.41;5002626;28;20695;-77
2021/09/11 05:00:59;;;;;;;7.70;7.10;;;;;;;18.77;91.71;100259.31;5002561;28;20236;-77
2021/09/11 05:03:27;;;;;;;8.37;7.57;;;;;;;18.71;92.03;100257.91;5003208;28;20212;-77
2021/09/11 05:05:54;;;;;;;7.67;7.00;;;;;;;18.71;92.25;100260.56;5002113;28;20287;-76
2021/09/11 05:08:22;;;;;;;7.83;7.23;;;;;;;18.72;92.24;100262.25;5002761;28;20218;-76
2021/09/11 05:10:48;;;;;;;8.30;7.57;;;;;;;18.70;92.05;100268.56;5002979;28;20210;-77
2021/09/11 05:13:15;;;;;;;8.40;7.70;;;;;;;18.73;91.86;100266.59;5002369;28;20214;-77
2021/09/11 05:15:41;;;;;;;8.07;7.47;;;;;;;18.70;92.00;100276.50;5002144;28;20271;-76
2021/09/11 05:18:07;;;;;;;7.63;7.13;;;;;;;18.69;92.10;100264.19;5002642;28;20753;-77
2021/09/11 05:20:34;;;;;;;7.83;7.33;;;;;;;18.71;91.90;100270.25;5002863;28;20214;-77
2021/09/11 05:23:00;;;;;;;7.33;6.83;;;;;;;18.73;92.17;100274.53;5002239;28;20221;-77
2021/09/11 05:25:28;;;;;;;7.57;6.97;;;;;;;18.74;92.17;100272.75;5002354;28;20234;-77
2021/09/11 05:27:55;;;;;;;8.00;7.30;;;;;;;18.73;91.81;100276.31;5002529;28;20700;-77
2021/09/11 05:30:22;;;;;;;7.80;7.07;;;;;;;18.69;92.14;100273.00;5002122;28;20217;-77
2021/09/11 05:32:48;;;;;;;7.63;7.03;;;;;;;18.70;91.69;100287.06;5002466;28;20237;-76
2021/09/11 05:35:15;;;;;;;6.63;6.03;;;;;;;18.71;91.17;100297.56;5002403;28;20213;-78
2021/09/11 05:37:42;;;;;;;6.80;6.30;;;;;;;18.77;91.10;100307.81;5002031;28;20267;-76
2021/09/11 05:40:09;;;;;;;6.03;5.53;;;;;;;18.77;91.47;100296.34;5002077;28;20217;-77
2021/09/11 05:42:37;;;;;;;6.20;5.70;;;;;;;18.80;90.87;100318.22;5002681;28;20236;-78
2021/09/11 05:45:05;;;;;;;5.47;5.03;;;;;;;18.83;90.58;100331.28;5002215;28;20264;-77
2021/09/11 05:47:31;;;;;;;5.70;5.20;;;;;;;18.87;90.42;100342.56;5002388;28;20256;-78
2021/09/11 05:49:58;;;;;;;5.50;5.00;;;;;;;18.89;90.14;100347.75;5001891;28;20824;-76
2021/09/11 05:52:24;;;;;;;4.87;4.47;;;;;;;18.87;90.61;100337.28;5002387;28;20230;-78
2021/09/11 05:54:51;;;;;;;5.27;4.90;;;;;;;18.90;90.78;100342.38;5001488;28;20310;-78
2021/09/11 05:57:17;;;;;;;5.20;4.57;;;;;;;18.91;90.40;100351.16;5002585;28;20264;-77
2021/09/11 05:59:45;;;;;;;5.10;4.53;;;;;;;18.94;90.28;100345.72;5002046;28;20209;-78
2021/09/11 06:02:12;;;;;;;5.47;4.43;;;;;;;18.98;90.47;100345.44;5002869;28;20238;-76
2021/09/11 06:04:38;;;;;;;4.43;4.13;;;;;;;19.00;90.54;100348.88;5002322;28;20213;-78
2021/09/11 06:07:05;;;;;;;5.07;4.60;;;;;;;19.03;90.02;100355.81;5001741;28;20229;-77
2021/09/11 06:09:31;;;;;;;4.53;4.17;;;;;;;19.04;90.20;100368.06;5005825;28;20645;-77
2021/09/11 06:11:57;;;;;;;4.93;4.53;;;;;;;19.06;90.09;100368.84;5005833;28;21049;-75
2021/09/11 06:14:24;;;;;;;4.93;4.50;;;;;;;19.08;90.07;100364.31;5005644;28;20205;-78
2021/09/11 06:16:51;;;;;;;4.83;4.53;;;;;;;19.08;90.27;100364.31;5005145;28;20672;-77
2021/09/11 06:19:18;;;;;;;5.23;4.83;;;;;;;19.03;89.38;100385.75;5004786;28;20822;-78
2021/09/11 06:21:44;;;;;;;5.47;5.07;;;;;;;19.08;89.53;100382.00;5005303;28;21287;-78
2021/09/11 06:24:15;;;;;;;5.33;4.93;;;;;;;19.02;89.51;100385.81;5004848;28;20216;-76
2021/09/11 06:26:41;;;;;;;5.77;5.27;;;;;;;19.08;89.56;100389.94;5005116;28;20711;-77
2021/09/11 06:29:08;;;;;;;6.50;6.00;;;;;;;19.06;89.53;100379.41;5005435;28;20204;-78
2021/09/11 06:31:34;;;;;;;6.97;6.27;;;;;;;19.09;89.71;100391.63;5005003;28;20649;-77
2021/09/11 06:34:02;;;;;;;7.70;7.20;;;;;;;19.18;89.63;100383.19;5005424;28;20238;-78
2021/09/11 06:36:28;;;;;;;6.20;5.70;;;;;;;19.20;89.70;100379.50;5004683;28;20209;-77
2021/09/11 06:38:55;;;;;;;6.80;6.10;;;;;;;19.25;89.65;100384.56;5004047;28;20218;-75
2021/09/11 06:41:21;;;;;;;7.20;6.50;;;;;;;19.32;89.69;100385.91;5004423;28;20656;-78
2021/09/11 06:43:47;;;;;;;7.40;6.90;;;;;;;19.36;89.15;100397.19;5004190;28;20635;-77
2021/09/11 06:46:15;;;;;;;6.83;6.40;;;;;;;19.22;88.46;100425.25;5004476;28;20237;-76
2021/09/11 06:48:41;;;;;;;7.57;6.83;;;;;;;19.11;89.16;100403.84;5004439;28;20227;-78
2021/09/11 06:51:11;;;;;;;6.73;6.13;;;;;;;19.26;89.08;100394.19;5004710;28;20229;-76
2021/09/11 06:53:37;;;;;;;6.60;6.20;;;;;;;19.25;89.24;100396.00;5004106;28;20210;-76
2021/09/11 06:56:04;;;;;;;8.27;6.00;;;;;;;19.38;89.09;100401.44;5004575;28;20282;-77
2021/09/11 06:58:31;;;;;;;7.87;7.30;;;;;;;19.42;88.48;100421.53;5004874;28;20731;-77
2021/09/11 07:00:58;;;;;;;7.13;6.50;;;;;;;19.48;88.29;100428.25;5004610;28;20234;-77
2021/09/11 07:03:25;;;;;;;7.03;6.53;;;;;;;19.60;88.32;100432.00;5004118;28;20211;-78
2021/09/11 07:05:51;;;;;;;7.37;6.87;;;;;;;19.65;88.15;100437.91;5004116;28;20241;-77
2021/09/11 07:08:19;;;;;;;8.10;7.40;;;;;;;19.71;87.78;100449.94;5004630;28;20677;-78
2021/09/11 07:10:45;;;;;;;7.97;7.47;;;;;;;19.57;87.66;100466.59;5005026;28;20593;-77
2021/09/11 07:13:12;;;;;;;8.07;7.57;;;;;;;19.65;88.45;100451.97;5006143;28;20272;-77
2021/09/11 07:15:39;;;;;;;9.03;8.10;;;;;;;19.72;88.11;100455.19;5005020;28;20203;-77
2021/09/11 07:18:06;;;;;;;8.57;7.87;;;;;;;19.54;87.63;100477.34;5003899;28;20767;-78
2021/09/11 07:20:32;;;;;;;7.73;7.23;;;;;;;19.49;88.03;100455.59;5004802;28;20283;-76
2021/09/11 07:22:58;;;;;;;8.47;7.87;;;;;;;19.54;87.96;100456.19;5003181;28;20731;-78
2021/09/11 07:25:26;;;;;;;12.23;7.67;;;;;;;19.60;87.89;100461.13;5003911;28;20684;-78
2021/09/11 07:27:53;;;;;;;9.00;8.30;;;;;;;19.58;87.87;100478.91;5004879;28;20291;-78
2021/09/11 07:30:20;;;;;;;9.73;8.93;;;;;;;19.73;87.75;100480.72;5003874;28;20277;-74
2021/09/11 07:32:46;;;;;;;9.83;8.90;;;;;;;19.73;87.16;100493.97;5004106;28;20584;-77
2021/09/11 07:35:12;;;;;;;8.40;7.80;;;;;;;19.84;87.11;100502.16;5006079;28;20268;-79
2021/09/11 07:37:39;;;;;;;9.10;8.50;;;;;;;19.86;86.70;100510.03;5006561;28;20238;-77
2021/09/11 07:40:06;;;;;;;8.57;7.97;;;;;;;20.04;86.92;100506.31;5006442;28;20215;-79
2021/09/11 07:42:34;;;;;;;9.63;8.93;;;;;;;19.93;86.66;100510.53;5007915;28;20234;-79
2021/09/11 07:45:01;;;;;;;9.40;8.70;;;;;;;19.95;86.92;100504.19;5005235;28;20223;-79
2021/09/11 07:47:27;;;;;;;10.27;9.50;;;;;;;19.93;86.88;100521.13;5006124;28;20235;-78
2021/09/11 07:49:54;;;;;;;10.47;9.67;;;;;;;19.96;86.30;100534.19;5005914;28;20217;-78
2021/09/11 07:52:20;;;;;;;11.50;10.30;;;;;;;19.93;86.31;100535.22;5007373;28;20231;-79
2021/09/11 07:54:46;;;;;;;10.83;10.03;;;;;;;19.89;86.84;100523.09;5005972;28;20238;-79
2021/09/11 07:57:13;;;;;;;11.20;10.30;;;;;;;19.93;86.87;100519.31;5004018;28;20350;-77
2021/09/11 07:59:41;;;;;;;10.63;9.83;;;;;;;20.02;86.99;100510.88;5005189;28;20220;-77
2021/09/11 08:02:08;;;;;;;10.73;9.93;;;;;;;20.17;86.81;100524.16;5005656;28;20234;-79
2021/09/11 08:04:34;;;;;;;12.50;11.60;;;;;;;20.20;86.38;100539.91;5006135;28;20256;-78
2021/09/11 08:07:00;;;;;;;13.60;12.60;;;;;;;20.13;86.46;100549.16;5004945;28;20230;-76
2021/09/11 08:09:27;;;;;;;15.73;14.43;;;;;;;20.05;85.97;100552.22;5006119;28;20295;-78
2021/09/11 08:11:53;;;;;;;13.83;12.43;;;;;;;19.98;85.95;100561.44;5005808;28;20230;-78
2021/09/11 08:14:19;;;;;;;14.17;12.90;;;;;;;20.03;85.41;100578.81;5004715;28;20249;-77
2021/09/11 08:16:47;;;;;;;13.97;12.63;;;;;;;20.12;85.75;100566.84;5003935;28;20210;-77
2021/09/11 08:19:13;;;;;;;14.23;13.03;;;;;;;19.90;85.53;100580.44;5003299;28;20243;-77
2021/09/11 08:21:40;;;;;;;13.00;11.90;;;;;;;20.00;85.95;100560.44;5004484;28;20283;-78
2021/09/11 08:24:06;;;;;;;13.77;12.43;;;;;;;20.16;85.57;100560.44;5004528;28;20214;-76
2021/09/11 08:26:33;;;;;;;13.83;12.73;;;;;;;20.20;84.82;100584.97;5004249;28;20716;-78
2021/09/11 08:29:00;;;;;;;14.47;12.80;;;;;;;20.16;84.93;100591.38;5003644;28;20276;-77
2021/09/11 08:31:27;;;;;;;13.47;12.37;;;;;;;20.31;85.04;100587.00;5003890;28;20288;-77
2021/09/11 08:33:55;;;;;;;13.67;12.47;;;;;;;20.33;84.17;100611.63;5003202;28;20279;-77
2021/09/11 08:36:22;;;;;;;13.60;12.60;;;;;;;20.43;83.79;100621.63;5002171;28;20416;-77
2021/09/11 08:38:48;;;;;;;13.57;12.47;;;;;;;20.56;83.06;100650.94;5002578;28;20240;-77
2021/09/11 08:41:15;;;;;;;14.27;12.90;;;;;;;20.52;82.55;100659.16;5003995;28;20225;-78
2021/09/11 08:43:41;;;;;;;15.80;13.17;;;;;;;20.57;83.82;100630.56;5003797;28;20279;-77
2021/09/11 08:46:08;;;;;;;13.13;12.03;;;;;;;20.62;82.87;100657.72;5003617;28;20222;-77
2021/09/11 08:48:35;;;;;;;14.40;13.10;;;;;;;20.59;82.89;100669.38;5004231;28;20640;-76
2021/09/11 08:51:02;;;;;;;13.50;12.40;;;;;;;20.48;82.39;100681.50;5003480;28;20256;-77
2021/09/11 08:53:29;;;;;;;14.23;13.07;;;;;;;20.24;83.71;100652.78;5004106;28;20220;-77
2021/09/11 08:55:55;;;;;;;13.87;12.77;;;;;;;20.30;84.18;100636.53;5003628;28;20210;-78
2021/09/11 08:58:22;;;;;;;13.57;12.43;;;;;;;20.31;84.02;100643.50;5003905;28;20667;-78
2021/09/11 09:00:51;;;;;;;13.20;12.20;;;;;;;20.26;83.99;100652.66;5003579;28;20257;-77
2021/09/11 09:03:29;;;;;;;13.43;12.43;;;;;;;20.19;85.03;100613.25;5003132;28;20214;-76
2021/09/11 09:05:56;;;;;;;14.77;13.47;;;;;;;20.31;84.21;100624.97;5003261;28;20209;-75
2021/09/11 09:08:30;;;;;;;15.53;14.23;;;;;;;20.22;82.89;100674.06;5003487;28;20233;-77
2021/09/11 09:11:13;;;;;;;16.77;15.27;;;;;;;20.27;82.74;100687.03;5002856;28;20296;-75
2021/09/11 09:13:53;;;;;;;15.80;14.50;;;;;;;20.34;81.71;100720.25;5003299;28;20255;-77
2021/09/11 09:16:20;;;;;;;16.57;15.27;;;;;;;20.09;80.93;100752.53;5002989;28;20687;-76
2021/09/11 09:18:46;;;;;;;17.43;15.83;;;;;;;20.12;81.83;100719.69;5001973;28;20213;-76
2021/09/11 09:21:21;;;;;;;18.10;16.37;;;;;;;20.13;80.42;100746.13;5002606;28;20303;-76
2021/09/11 09:23:50;;;;;;;17.87;16.37;;;;;;;20.16;80.51;100767.16;5003548;28;20235;-77
2021/09/11 09:26:17;;;;;;;17.70;16.20;;;;;;;20.23;80.23;100763.22;5003461;28;20224;-76
2021/09/11 09:28:59;;;;;;;18.77;17.07;;;;;;;20.27;80.00;100785.13;5002841;28;20217;-77
2021/09/11 09:31:26;;;;;;;17.33;15.83;;;;;;;20.34;80.40;100772.44;5003417;28;20221;-77
2021/09/11 09:33:52;;;;;;;16.17;14.87;;;;;;;20.31;80.78;100756.66;5003171;28;20216;-77
2021/09/11 09:36:18;;;;;;;17.40;16.00;;;;;;;20.23;80.27;100778.28;5003191;28;20203;-76
2021/09/11 09:38:45;;;;;;;15.77;14.60;;;;;;;20.26;79.53;100783.44;5003328;28;20775;-76
2021/09/11 09:41:13;;;;;;;15.23;13.83;;;;;;;20.30;78.41;100819.44;5002675;28;20225;-76
2021/09/11 09:43:43;;;;;;;14.30;13.20;;;;;;;20.44;78.95;100813.41;5006217;28;20288;-76
2021/09/11 09:46:11;;;;;;;14.47;13.37;;;;;;;20.43;79.15;100798.41;5007446;28;20212;-78
2021/09/11 09:48:39;;;;;;;15.53;14.33;;;;;;;20.26;78.92;100812.59;5007645;28;20233;-77
2021/09/11 09:51:07;;;;;;;15.63;14.27;;;;;;;20.51;79.65;100763.53;5007408;28;20283;-77
2021/09/11 09:53:34;;;;;;;15.10;13.90;;;;;;;20.61;80.28;100741.75;5007809;28;20253;-77
2021/09/11 09:56:01;;;;;;;16.13;14.63;;;;;;;20.77;79.73;100757.66;5007777;28;20267;-78
2021/09/11 09:58:30;;;;;;;16.47;15.07;;;;;;;20.82;78.12;100808.66;5006914;28;20797;-77
2021/09/11 10:00:57;;;;;;;15.50;14.33;;;;;;;20.96;78.65;100791.97;5006740;28;20235;-76
2021/09/11 10:03:23;;;;;;;15.93;14.43;;;;;;;21.06;76.75;100845.38;5007101;28;20684;-78
2021/09/11 10:05:53;;;;;;;14.10;13.00;;;;;;;21.17;76.73;100863.38;5006671;28;20213;-77
2021/09/11 10:08:21;;;;;;;14.07;12.97;;;;;;;21.20;75.85;100887.09;5007119;28;20697;-77
2021/09/11 10:10:49;;;;;;;14.93;13.57;;;;;;;21.17;77.21;100847.44;5006952;28;20620;-76
2021/09/11 10:13:17;;;;;;;13.63;12.23;;;;;;;21.18;76.49;100859.78;5007345;28;20202;-78
2021/09/11 10:15:54;;;;;;;14.20;13.00;;;;;;;21.17;76.95;100855.41;5007505;28;20271;-77
2021/09/11 10:18:43;;;;;;;12.37;11.47;;;;;;;21.29;75.31;100904.28;5007581;28;20220;-76
2021/09/11 10:21:16;;;;;;;12.93;11.83;;;;;;;21.26;73.96;100957.59;5006240;28;20233;-77
2021/09/11 10:23:43;;;;;;;13.50;12.50;;;;;;;21.42;73.53;100953.97;5005503;28;20205;-77
2021/09/11 10:26:39;;;;;;;13.03;12.07;;;;;;;21.48;73.73;100955.47;5006616;28;20758;-75
2021/09/11 10:29:51;;;;;;;13.13;12.23;;;;;;;21.30;72.75;100977.72;5006196;28;20221;-77
2021/09/11 10:32:21;;;;;;;13.97;12.87;;;;;;;21.26;72.31;100994.75;4944919;29;20247;-76
2021/09/11 10:34:56;;;;;;;14.30;13.13;;;;;;;21.33;72.15;100999.66;4992516;28;20257;-76
2021/09/11 10:37:29;;;;;;;16.40;14.73;;;;;;;21.08;71.10;101045.25;5006586;28;20984;-78
2021/09/11 10:40:34;;;;;;;15.13;14.03;;;;;;;21.10;72.07;101008.00;5006514;28;20217;-77
2021/09/11 10:43:31;;;;;;;15.47;14.27;;;;;;;21.11;72.50;100991.13;5006274;28;20236;-76
2021/09/11 10:46:04;;;;;;;15.90;14.67;;;;;;;21.24;71.27;101037.31;5006513;28;20206;-77
2021/09/11 10:48:47;;;;;;;16.20;15.03;;;;;;;21.11;71.52;101031.84;5005447;28;20240;-77
2021/09/11 10:51:29;;;;;;;16.47;15.27;;;;;;;21.11;72.19;100999.09;5004122;28;20271;-75
2021/09/11 10:54:10;;;;;;;16.77;15.53;;;;;;;20.89;71.32;101036.53;4313021;28;10000795;-75
2021/09/11 10:56:42;;;;;;;14.70;13.60;;;;;;;21.03;70.59;101048.16;5002545;28;20449;-77
2021/09/11 10:59:32;;;;;;;15.77;14.57;;;;;;;21.04;70.21;101075.56;5002453;28;20210;-77
2021/09/11 11:02:05;;;;;;;14.30;13.30;;;;;;;21.22;69.54;101073.72;5003058;28;20738;-77
2021/09/11 11:04:34;;;;;;;14.90;13.90;;;;;;;21.47;69.40;101102.53;5003035;28;20268;-77
2021/09/11 11:07:04;;;;;;;14.27;13.27;;;;;;;21.47;69.21;101083.06;5002993;28;20211;-78
2021/09/11 11:09:35;;;;;;;13.70;12.70;;;;;;;21.30;68.46;101123.78;5002667;28;20213;-76
2021/09/11 11:12:03;;;;;;;12.97;12.03;;;;;;;21.28;68.47;101129.16;5003627;28;20321;-76
2021/09/11 11:14:30;;;;;;;12.40;11.50;;;;;;;21.38;69.09;101079.91;5002484;28;20245;-76
2021/09/11 11:16:56;;;;;;;14.87;13.57;;;;;;;21.28;69.59;101076.03;5002252;28;21067;-77
2021/09/11 11:19:25;;;;;;;13.23;12.33;;;;;;;21.38;69.44;101079.91;5002274;28;20744;-76
2021/09/11 11:21:59;;;;;;;12.63;11.83;;;;;;;21.52;69.19;101083.66;5002115;28;21126;-76